createdAt,value
2023-04-16T00:01:50.084Z,23.00
2023-04-16T00:04:17.498Z,23.23
2023-04-16T00:06:46.038Z,23.48
2023-04-16T00:09:13.870Z,23.30
2023-04-16T00:11:41.141Z,23.85
2023-04-16T00:14:08.319Z,23.38
2023-04-16T00:16:36.862Z,25.05
2023-04-16T00:19:07.038Z,24.42
2023-04-16T00:21:34.676Z,24.52
2023-04-16T00:24:03.362Z,25.60
2023-04-16T00:26:30.537Z,25.55
2023-04-16T00:28:58.052Z,25.58
2023-04-16T00:31:32.571Z,25.42
2023-04-16T00:34:04.837Z,26.38
2023-04-16T00:36:52.555Z,25.02
2023-04-16T00:39:19.907Z,26.77
2023-04-16T00:41:49.216Z,26.60
2023-04-16T00:44:16.453Z,25.93
2023-04-16T00:46:45.972Z,27.75
2023-04-16T00:49:15.559Z,27.02
2023-04-16T00:51:44.977Z,27.45
2023-04-16T00:54:13.025Z,27.83
2023-04-16T00:56:40.102Z,27.20
2023-04-16T00:59:07.969Z,28.92
2023-04-16T01:01:35.306Z,27.60
2023-04-16T01:04:02.625Z,27.90
2023-04-16T01:06:29.771Z,28.33
2023-04-16T01:08:56.773Z,28.92
2023-04-16T01:11:24.109Z,28.90
2023-04-16T01:13:51.098Z,29.63
2023-04-16T01:16:18.476Z,30.90
2023-04-16T01:18:48.778Z,31.10
2023-04-16T01:21:15.786Z,31.20
2023-04-16T01:23:45.529Z,31.65
2023-04-16T01:26:12.811Z,32.50
2023-04-16T01:28:40.490Z,34.28
2023-04-16T01:31:07.509Z,32.20
2023-04-16T01:33:34.952Z,32.05
2023-04-16T01:36:01.967Z,32.58
2023-04-16T01:38:28.919Z,33.47
2023-04-16T01:40:57.914Z,33.50
2023-04-16T01:43:25.320Z,34.65
2023-04-16T01:45:54.193Z,34.67
2023-04-16T01:48:21.202Z,33.80
2023-04-16T01:50:48.668Z,34.17
2023-04-16T01:53:16.851Z,35.20
2023-04-16T01:55:43.801Z,35.10
2023-04-16T01:58:11.012Z,34.95
2023-04-16T02:00:41.182Z,36.17
2023-04-16T02:03:08.287Z,37.10
2023-04-16T02:05:35.917Z,36.65
2023-04-16T02:08:03.372Z,35.93
2023-04-16T02:10:30.893Z,36.67
2023-04-16T02:12:58.619Z,38.13
2023-04-16T02:15:26.529Z,37.10
2023-04-16T02:17:57.425Z,38.22
2023-04-16T02:20:26.342Z,37.67
2023-04-16T02:22:54.016Z,38.03
2023-04-16T02:25:21.137Z,39.10
2023-04-16T02:27:48.573Z,39.17
2023-04-16T02:30:18.090Z,38.38
2023-04-16T02:32:46.307Z,39.60
2023-04-16T02:35:13.590Z,39.10
2023-04-16T02:37:41.068Z,39.42
2023-04-16T02:40:08.797Z,39.37
2023-04-16T02:42:36.013Z,39.17
2023-04-16T02:45:03.288Z,40.05
2023-04-16T02:47:30.324Z,40.38
2023-04-16T02:49:57.295Z,38.55
2023-04-16T02:52:24.627Z,39.65
2023-04-16T02:54:51.633Z,40.13
2023-04-16T02:57:19.579Z,39.20
2023-04-16T02:59:46.649Z,39.13
2023-04-16T03:02:15.117Z,39.05
2023-04-16T03:04:43.122Z,38.90
2023-04-16T03:07:11.200Z,38.13
2023-04-16T03:09:38.290Z,37.63
2023-04-16T03:12:05.591Z,36.55
2023-04-16T03:14:32.718Z,36.55
2023-04-16T03:16:59.674Z,36.03
2023-04-16T03:19:26.765Z,37.25
2023-04-16T03:21:54.637Z,36.88
2023-04-16T03:24:21.882Z,37.45
2023-04-16T03:26:48.888Z,37.70
2023-04-16T03:29:15.998Z,37.45
2023-04-16T03:31:43.353Z,36.95
2023-04-16T03:34:10.907Z,37.33
2023-04-16T03:36:38.976Z,37.05
2023-04-16T03:39:07.003Z,36.50
2023-04-16T03:41:34.177Z,36.17
2023-04-16T03:44:02.013Z,36.97
2023-04-16T03:46:31.070Z,37.80
2023-04-16T03:48:59.114Z,37.17
2023-04-16T03:51:26.594Z,38.80
2023-04-16T03:53:54.951Z,37.63
2023-04-16T03:56:21.902Z,37.17
2023-04-16T03:58:49.335Z,37.60
2023-04-16T04:01:20.758Z,36.30
2023-04-16T04:03:48.529Z,37.40
2023-04-16T04:06:15.905Z,36.03
2023-04-16T04:08:43.006Z,36.90
2023-04-16T04:11:11.055Z,35.85
2023-04-16T04:13:39.042Z,36.00
2023-04-16T04:16:06.541Z,36.45
2023-04-16T04:18:34.097Z,35.20
2023-04-16T04:21:06.086Z,34.77
2023-04-16T04:23:35.026Z,35.28
2023-04-16T04:26:03.944Z,35.72
2023-04-16T04:28:33.796Z,35.80
2023-04-16T04:31:01.516Z,35.05
2023-04-16T04:33:29.191Z,34.90
2023-04-16T04:35:56.430Z,34.53
2023-04-16T04:38:25.383Z,34.65
2023-04-16T04:40:52.923Z,34.80
2023-04-16T04:43:20.510Z,36.40
2023-04-16T04:45:49.061Z,35.40
2023-04-16T04:48:16.790Z,36.53
2023-04-16T04:50:44.880Z,34.92
2023-04-16T04:53:12.044Z,34.78
2023-04-16T04:55:39.355Z,36.08
2023-04-16T04:58:07.656Z,34.97
2023-04-16T05:00:37.958Z,32.40
2023-04-16T05:03:07.024Z,33.25
2023-04-16T05:05:34.090Z,34.70
2023-04-16T05:08:01.744Z,32.88
2023-04-16T05:10:29.442Z,33.20
2023-04-16T05:12:56.385Z,32.78
2023-04-16T05:15:28.474Z,32.00
2023-04-16T05:17:56.566Z,33.17
2023-04-16T05:20:26.934Z,34.08
2023-04-16T05:22:55.445Z,33.50
2023-04-16T05:25:23.278Z,33.53
2023-04-16T05:27:50.498Z,33.08
2023-04-16T05:30:18.642Z,33.42
2023-04-16T05:32:46.053Z,33.63
2023-04-16T05:35:13.930Z,33.55
2023-04-16T05:37:43.100Z,33.72
2023-04-16T05:40:12.464Z,34.35
2023-04-16T05:42:40.503Z,34.80
2023-04-16T05:45:08.533Z,34.05
2023-04-16T05:47:35.869Z,35.05
2023-04-16T05:50:04.024Z,36.00
2023-04-16T05:52:31.075Z,36.65
2023-04-16T05:55:03.914Z,38.08
2023-04-16T05:57:33.078Z,37.58
2023-04-16T06:00:00.293Z,37.80
2023-04-16T06:02:30.750Z,38.25
2023-04-16T06:04:57.908Z,40.63
2023-04-16T06:07:25.014Z,42.35
2023-04-16T06:09:52.153Z,41.47
2023-04-16T06:12:19.169Z,39.38
2023-04-16T06:14:46.311Z,40.50
2023-04-16T06:17:13.419Z,40.70
2023-04-16T06:19:44.158Z,39.90
2023-04-16T06:22:11.393Z,39.93
2023-04-16T06:24:38.482Z,40.78
2023-04-16T06:27:06.560Z,41.78
2023-04-16T06:29:40.679Z,41.40
2023-04-16T06:32:13.713Z,40.42
2023-04-16T06:34:44.374Z,39.57
2023-04-16T06:37:13.551Z,42.38
2023-04-16T06:39:43.040Z,41.80
2023-04-16T06:42:10.505Z,43.33
2023-04-16T06:44:37.794Z,42.65
2023-04-16T06:47:04.989Z,42.42
2023-04-16T06:49:33.123Z,42.38
2023-04-16T06:52:00.592Z,41.53
2023-04-16T06:54:27.942Z,42.30
2023-04-16T06:56:55.177Z,41.42
2023-04-16T06:59:22.520Z,42.17
2023-04-16T07:01:49.733Z,42.80
2023-04-16T07:04:21.904Z,41.95
2023-04-16T07:06:49.022Z,41.88
2023-04-16T07:09:17.998Z,42.22
2023-04-16T07:11:49.887Z,42.10
2023-04-16T07:14:17.706Z,41.90
2023-04-16T07:16:45.044Z,40.92
2023-04-16T07:19:12.143Z,41.17
2023-04-16T07:21:44.185Z,40.05
2023-04-16T07:24:14.147Z,40.72
2023-04-16T07:26:41.454Z,38.33
2023-04-16T07:29:08.728Z,39.53
2023-04-16T07:31:35.978Z,40.05
2023-04-16T07:34:04.160Z,39.10
2023-04-16T07:36:32.583Z,38.10
2023-04-16T07:39:00.440Z,38.60
2023-04-16T07:41:29.583Z,36.78
2023-04-16T07:43:58.062Z,35.93
2023-04-16T07:46:28.249Z,35.55
2023-04-16T07:48:58.368Z,32.88
2023-04-16T07:51:26.417Z,32.40
2023-04-16T07:53:54.392Z,33.38
2023-04-16T07:56:21.404Z,33.05
2023-04-16T07:58:49.029Z,33.65
2023-04-16T08:01:17.734Z,33.27
2023-04-16T08:03:45.667Z,31.38
2023-04-16T08:06:12.984Z,32.55
2023-04-16T08:08:40.632Z,31.77
2023-04-16T08:11:07.889Z,32.30
2023-04-16T08:13:35.327Z,31.55
2023-04-16T08:16:02.541Z,31.20
2023-04-16T08:18:29.673Z,29.88
2023-04-16T08:20:59.705Z,29.95
2023-04-16T08:23:27.181Z,29.95
2023-04-16T08:25:58.157Z,29.73
2023-04-16T08:28:26.208Z,29.40
2023-04-16T08:30:53.516Z,28.20
2023-04-16T08:33:21.532Z,28.45
2023-04-16T08:35:48.539Z,28.23
2023-04-16T08:38:15.502Z,27.20
2023-04-16T08:40:43.042Z,26.90
2023-04-16T08:43:13.871Z,27.23
2023-04-16T08:45:42.775Z,26.83
2023-04-16T08:48:12.917Z,27.38
2023-04-16T08:50:41.232Z,27.30
2023-04-16T08:53:11.345Z,26.92
2023-04-16T08:55:48.132Z,25.75
2023-04-16T08:58:22.811Z,25.60
2023-04-16T09:00:53.138Z,24.63
2023-04-16T09:03:21.709Z,23.98
2023-04-16T09:05:51.177Z,24.58
2023-04-16T09:08:18.992Z,24.17
2023-04-16T09:10:46.150Z,23.77
2023-04-16T09:13:15.826Z,22.40
2023-04-16T09:15:43.301Z,22.42
2023-04-16T09:18:12.053Z,22.65
2023-04-16T09:20:39.834Z,22.13
2023-04-16T09:23:06.918Z,22.70
2023-04-16T09:25:38.596Z,22.80
2023-04-16T09:28:05.760Z,22.70
2023-04-16T09:30:42.526Z,20.80
2023-04-16T09:33:23.331Z,21.58
2023-04-16T09:35:52.032Z,21.40
2023-04-16T09:38:20.792Z,20.77
2023-04-16T09:40:48.222Z,20.15
2023-04-16T09:43:19.178Z,20.45
2023-04-16T09:45:53.439Z,19.90
2023-04-16T09:48:34.212Z,20.70
2023-04-16T09:51:02.903Z,20.52
2023-04-16T09:53:31.609Z,20.23
2023-04-16T09:56:00.244Z,19.75
2023-04-16T09:58:27.801Z,19.07
2023-04-16T10:01:03.362Z,19.45
2023-04-16T10:03:35.209Z,18.58
2023-04-16T10:06:16.049Z,19.27
2023-04-16T10:08:44.318Z,19.90
2023-04-16T10:11:11.410Z,20.05
2023-04-16T10:13:38.494Z,20.23
2023-04-16T10:16:07.037Z,19.00
2023-04-16T10:18:40.426Z,18.98
2023-04-16T10:21:08.280Z,19.05
2023-04-16T10:23:35.400Z,19.90
2023-04-16T10:26:02.501Z,19.92
2023-04-16T10:28:31.040Z,19.00
2023-04-16T10:30:58.691Z,19.30
2023-04-16T10:33:29.632Z,19.42
2023-04-16T10:36:31.078Z,19.70
2023-04-16T10:39:01.667Z,19.63
2023-04-16T10:41:29.030Z,18.67
2023-04-16T10:44:10.053Z,18.33
2023-04-16T10:46:41.803Z,19.40
2023-04-16T10:49:19.375Z,18.48
2023-04-16T10:52:00.189Z,18.20
2023-04-16T10:54:31.652Z,18.67
2023-04-16T10:57:01.625Z,18.98
2023-04-16T10:59:40.386Z,18.63
2023-04-16T11:02:09.748Z,18.60
2023-04-16T11:04:38.633Z,18.40
2023-04-16T11:07:14.992Z,18.23
2023-04-16T11:09:54.047Z,17.55
2023-04-16T11:12:27.190Z,17.77
2023-04-16T11:15:01.394Z,18.08
2023-04-16T11:17:33.437Z,17.73
2023-04-16T11:20:02.929Z,17.25
2023-04-16T11:22:31.354Z,17.15
2023-04-16T11:24:58.372Z,17.77
2023-04-16T11:27:30.871Z,17.13
2023-04-16T11:30:17.684Z,16.95
2023-04-16T11:32:45.674Z,18.23
2023-04-16T11:35:17.660Z,17.70
2023-04-16T11:37:44.994Z,18.35
2023-04-16T11:40:12.692Z,17.55
2023-04-16T11:42:41.596Z,16.95
2023-04-16T11:45:10.429Z,17.55
2023-04-16T11:47:46.109Z,16.75
2023-04-16T11:50:30.997Z,17.38
2023-04-16T11:53:04.850Z,17.88
2023-04-16T11:55:31.873Z,17.27
2023-04-16T11:58:11.713Z,17.13
2023-04-16T12:00:39.212Z,17.50
2023-04-16T12:03:06.603Z,17.45
2023-04-16T12:05:39.040Z,17.77
2023-04-16T12:08:11.422Z,17.67
2023-04-16T12:10:53.764Z,17.63
2023-04-16T12:13:23.024Z,26.70
2023-04-16T12:15:54.932Z,18.10
2023-04-16T12:18:24.302Z,29.30
2023-04-16T12:20:52.397Z,17.35
2023-04-16T12:23:27.164Z,17.23
2023-04-16T12:25:55.221Z,17.58
2023-04-16T12:28:29.228Z,17.60
2023-04-16T12:30:56.991Z,17.13
2023-04-16T12:33:24.539Z,17.63
2023-04-16T12:35:52.101Z,17.60
2023-04-16T12:38:23.607Z,16.98
2023-04-16T12:40:52.111Z,16.75
2023-04-16T12:43:24.267Z,16.80
2023-04-16T12:45:53.347Z,16.67
2023-04-16T12:48:20.819Z,16.65
2023-04-16T12:50:48.511Z,17.45
2023-04-16T12:53:15.980Z,17.40
2023-04-16T12:55:43.036Z,18.70
2023-04-16T12:58:12.453Z,17.88
2023-04-16T13:00:40.514Z,17.67
2023-04-16T13:03:08.501Z,17.27
2023-04-16T13:05:36.760Z,17.67
2023-04-16T13:08:06.630Z,17.38
2023-04-16T13:10:33.645Z,17.15
2023-04-16T13:13:00.979Z,17.02
2023-04-16T13:15:30.873Z,16.63
2023-04-16T13:17:59.300Z,16.88
2023-04-16T13:20:26.580Z,16.33
2023-04-16T13:22:54.364Z,16.10
2023-04-16T13:25:24.366Z,16.20
2023-04-16T13:27:51.519Z,16.23
2023-04-16T13:30:20.989Z,16.17
2023-04-16T13:32:48.136Z,16.17
2023-04-16T13:35:17.090Z,15.80
2023-04-16T13:37:44.408Z,15.35
2023-04-16T13:40:11.589Z,16.00
2023-04-16T13:42:40.599Z,16.55
2023-04-16T13:45:13.527Z,15.65
2023-04-16T13:47:42.508Z,16.50
2023-04-16T13:50:10.618Z,16.35
2023-04-16T13:52:38.254Z,16.75
2023-04-16T13:55:06.839Z,16.83
2023-04-16T13:57:33.864Z,17.10
2023-04-16T14:00:03.585Z,16.58
2023-04-16T14:02:30.860Z,16.63
2023-04-16T14:04:57.957Z,16.88
2023-04-16T14:07:27.384Z,16.30
2023-04-16T14:09:54.446Z,15.55
2023-04-16T14:12:21.568Z,15.30
2023-04-16T14:14:49.365Z,15.60
2023-04-16T14:17:16.938Z,15.20
2023-04-16T14:19:43.987Z,15.05
2023-04-16T14:22:11.217Z,15.10
2023-04-16T14:24:40.573Z,15.23
2023-04-16T14:27:08.590Z,14.73
2023-04-16T14:29:36.479Z,15.20
2023-04-16T14:32:03.786Z,14.57
2023-04-16T14:34:31.119Z,14.85
2023-04-16T14:36:58.611Z,14.15
2023-04-16T14:39:25.953Z,13.80
2023-04-16T14:41:54.569Z,13.93
2023-04-16T14:44:22.727Z,14.45
2023-04-16T14:46:51.777Z,14.45
2023-04-16T14:49:19.242Z,14.02
2023-04-16T14:51:47.494Z,13.90
2023-04-16T14:54:15.020Z,14.23
2023-04-16T14:56:42.866Z,14.73
2023-04-16T14:59:13.113Z,13.85
2023-04-16T15:01:41.112Z,13.70
2023-04-16T15:04:10.405Z,13.73
2023-04-16T15:06:38.448Z,14.15
2023-04-16T15:09:07.038Z,14.63
2023-04-16T15:11:34.177Z,14.95
2023-04-16T15:14:01.653Z,14.37
2023-04-16T15:16:30.687Z,15.07
2023-04-16T15:18:58.459Z,14.73
2023-04-16T15:21:26.799Z,14.95
2023-04-16T15:23:54.042Z,15.52
2023-04-16T15:26:21.107Z,15.95
2023-04-16T15:28:50.103Z,16.40
2023-04-16T15:31:22.373Z,16.05
2023-04-16T15:33:50.617Z,15.98
2023-04-16T15:36:19.883Z,15.80
2023-04-16T15:38:47.357Z,15.50
2023-04-16T15:41:15.022Z,15.75
2023-04-16T15:43:42.374Z,16.48
2023-04-16T15:46:10.210Z,15.77
2023-04-16T15:48:49.106Z,16.90
2023-04-16T15:51:16.437Z,17.65
2023-04-16T15:53:45.359Z,16.27
2023-04-16T15:56:12.402Z,16.67
2023-04-16T15:58:39.717Z,17.02
2023-04-16T16:01:07.064Z,16.23
2023-04-16T16:03:36.203Z,15.90
2023-04-16T16:06:07.748Z,16.85
2023-04-16T16:08:39.726Z,16.30
2023-04-16T16:11:07.425Z,17.27
2023-04-16T16:13:35.902Z,17.15
2023-04-16T16:16:06.644Z,16.73
2023-04-16T16:18:35.542Z,16.80
2023-04-16T16:21:02.691Z,17.60
2023-04-16T16:23:29.736Z,17.60
2023-04-16T16:25:57.503Z,17.23
2023-04-16T16:28:25.571Z,17.50
2023-04-16T16:30:55.660Z,17.20
2023-04-16T16:33:24.654Z,17.33
2023-04-16T16:35:51.920Z,17.42
2023-04-16T16:38:19.187Z,17.38
2023-04-16T16:40:47.132Z,18.17
2023-04-16T16:43:14.468Z,18.90
2023-04-16T16:45:44.165Z,18.60
2023-04-16T16:48:11.369Z,18.40
2023-04-16T16:50:38.546Z,18.80
2023-04-16T16:53:08.923Z,18.90
2023-04-16T16:55:36.381Z,19.58
2023-04-16T16:58:03.593Z,19.42
2023-04-16T17:00:30.589Z,19.77
2023-04-16T17:03:00.554Z,18.63
2023-04-16T17:05:31.181Z,20.08
2023-04-16T17:07:58.679Z,20.88
2023-04-16T17:10:27.343Z,20.75
2023-04-16T17:12:55.036Z,20.13
2023-04-16T17:15:22.152Z,21.00
2023-04-16T17:17:49.259Z,20.97
2023-04-16T17:20:17.329Z,21.65
2023-04-16T17:22:44.752Z,20.75
2023-04-16T17:25:13.761Z,21.15
2023-04-16T17:27:41.630Z,21.27
2023-04-16T17:30:10.181Z,21.88
2023-04-16T17:32:37.455Z,22.25
2023-04-16T17:35:07.106Z,22.13
2023-04-16T17:37:35.298Z,23.58
2023-04-16T17:40:07.740Z,23.73
2023-04-16T17:42:35.492Z,23.83
2023-04-16T17:45:05.369Z,23.85
2023-04-16T17:47:40.043Z,23.58
2023-04-16T17:50:09.293Z,24.42
2023-04-16T17:52:40.436Z,25.23
2023-04-16T17:55:11.967Z,24.77
2023-04-16T17:57:40.337Z,24.58
2023-04-16T18:00:16.208Z,25.55
2023-04-16T18:02:44.000Z,25.65
2023-04-16T18:05:12.382Z,25.35
2023-04-16T18:07:39.471Z,26.52
2023-04-16T18:10:07.375Z,26.88
2023-04-16T18:12:34.624Z,27.60
2023-04-16T18:15:02.273Z,27.67
2023-04-16T18:17:30.337Z,27.75
2023-04-16T18:19:57.639Z,27.92
2023-04-16T18:22:27.041Z,28.45
2023-04-16T18:24:58.128Z,31.35
2023-04-16T18:27:25.319Z,34.78
2023-04-16T18:29:55.430Z,45.30
2023-04-16T18:32:30.864Z,29.02
2023-04-16T18:35:01.213Z,31.33
2023-04-16T18:37:32.796Z,29.55
2023-04-16T18:40:00.497Z,33.13
2023-04-16T18:42:30.798Z,29.30
2023-04-16T18:47:26.520Z,29.20
2023-04-16T18:49:53.871Z,29.48
2023-04-16T18:52:21.028Z,29.90
2023-04-16T18:54:51.256Z,29.73
2023-04-16T18:57:20.678Z,29.10
2023-04-16T18:59:48.258Z,29.43
2023-04-16T19:02:15.758Z,29.23
2023-04-16T19:04:43.021Z,29.80
2023-04-16T19:07:11.916Z,29.85
2023-04-16T19:09:39.174Z,29.23
2023-04-16T19:12:06.487Z,28.98
2023-04-16T19:14:34.568Z,29.60
2023-04-16T19:17:01.598Z,28.77
2023-04-16T19:19:29.134Z,28.42
2023-04-16T19:21:56.679Z,26.80
2023-04-16T19:24:23.816Z,27.48
2023-04-16T19:26:52.298Z,27.58
2023-04-16T19:29:19.710Z,27.20
2023-04-16T19:31:47.367Z,27.88
2023-04-16T19:34:17.206Z,27.42
2023-04-16T19:36:53.055Z,27.38
2023-04-16T19:39:20.674Z,28.42
2023-04-16T19:41:49.413Z,27.83
2023-04-16T19:44:17.195Z,28.50
2023-04-16T19:46:44.646Z,29.55
2023-04-16T19:49:12.087Z,28.85
2023-04-16T19:51:39.724Z,29.80
2023-04-16T19:54:07.347Z,32.47
2023-04-16T19:56:34.642Z,32.13
2023-04-16T19:59:02.721Z,41.83
2023-04-16T20:01:33.146Z,31.42
2023-04-16T20:04:00.792Z,29.55
2023-04-16T20:06:30.926Z,28.42
2023-04-16T20:08:58.525Z,28.67
2023-04-16T20:11:25.597Z,27.65
2023-04-16T20:13:53.084Z,28.75
2023-04-16T20:16:23.500Z,28.33
2023-04-16T20:18:54.474Z,29.27
2023-04-16T20:21:23.216Z,28.20
2023-04-16T20:23:50.771Z,30.10
2023-04-16T20:26:18.520Z,30.17
2023-04-16T20:28:46.142Z,30.10
2023-04-16T20:31:14.334Z,30.20
2023-04-16T20:33:41.949Z,30.10
2023-04-16T20:36:12.191Z,30.73
2023-04-16T20:38:39.828Z,30.75
2023-04-16T20:41:10.409Z,29.50
2023-04-16T20:43:42.070Z,29.67
2023-04-16T20:46:10.145Z,29.15
2023-04-16T20:48:38.686Z,28.73
2023-04-16T20:51:08.002Z,29.10
2023-04-16T20:53:40.122Z,28.63
2023-04-16T20:56:09.226Z,28.73
2023-04-16T20:58:36.634Z,28.70
2023-04-16T21:01:06.020Z,29.08
2023-04-16T21:03:33.866Z,29.83
2023-04-16T21:06:01.940Z,29.67
2023-04-16T21:08:30.414Z,30.35
2023-04-16T21:10:57.948Z,30.40
2023-04-16T21:13:25.636Z,30.05
2023-04-16T21:15:52.951Z,30.70
2023-04-16T21:18:20.122Z,29.83
2023-04-16T21:20:47.235Z,31.23
2023-04-16T21:23:14.361Z,30.67
2023-04-16T21:25:41.648Z,31.58
2023-04-16T21:28:09.357Z,32.00
2023-04-16T21:30:37.180Z,31.67
2023-04-16T21:33:05.083Z,32.67
2023-04-16T21:35:33.535Z,33.58
2023-04-16T21:38:01.818Z,33.10
2023-04-16T21:40:30.250Z,33.67
2023-04-16T21:42:58.772Z,32.60
2023-04-16T21:45:26.286Z,33.25
2023-04-16T21:47:54.340Z,34.42
2023-04-16T21:50:21.429Z,33.63
2023-04-16T21:52:49.405Z,32.75
2023-04-16T21:55:16.893Z,32.40
2023-04-16T21:57:46.093Z,32.73
2023-04-16T22:00:15.194Z,31.88
2023-04-16T22:02:43.680Z,32.20
2023-04-16T22:05:12.513Z,32.15
2023-04-16T22:07:39.755Z,31.52
2023-04-16T22:10:08.809Z,31.88
2023-04-16T22:12:39.496Z,32.85
2023-04-16T22:15:07.296Z,33.10
2023-04-16T22:17:34.437Z,32.97
2023-04-16T22:20:12.847Z,33.03
2023-04-16T22:22:43.507Z,33.35
2023-04-16T22:25:12.081Z,34.75
2023-04-16T22:27:39.636Z,34.60
2023-04-16T22:30:08.245Z,33.00
2023-04-16T22:32:35.448Z,34.00
2023-04-16T22:35:04.743Z,33.22
2023-04-16T22:37:32.484Z,32.63
2023-04-16T22:39:59.809Z,31.13
2023-04-16T22:42:27.672Z,29.90
2023-04-16T22:44:55.572Z,26.92
2023-04-16T22:47:22.919Z,27.02
2023-04-16T22:49:50.236Z,26.10
2023-04-16T22:52:17.494Z,27.65
2023-04-16T22:54:44.908Z,27.57
2023-04-16T22:57:12.051Z,28.20
2023-04-16T22:59:39.540Z,28.10
2023-04-16T23:02:06.833Z,28.17
2023-04-16T23:04:33.979Z,29.10
2023-04-16T23:07:01.512Z,28.08
2023-04-16T23:09:30.041Z,28.50
2023-04-16T23:11:58.469Z,27.65
2023-04-16T23:14:26.502Z,27.98
2023-04-16T23:16:53.915Z,27.95
2023-04-16T23:19:21.654Z,27.00
2023-04-16T23:21:49.039Z,27.33
2023-04-16T23:24:17.135Z,26.50
2023-04-16T23:26:44.761Z,28.00
2023-04-16T23:29:11.998Z,28.65
2023-04-16T23:31:39.404Z,27.23
2023-04-16T23:34:06.679Z,28.50
2023-04-16T23:36:33.765Z,28.40
2023-04-16T23:39:01.577Z,28.67
2023-04-16T23:41:28.944Z,29.05
2023-04-16T23:43:56.726Z,28.70
2023-04-16T23:46:24.279Z,28.33
2023-04-16T23:48:52.885Z,28.97
2023-04-16T23:51:19.928Z,29.05
2023-04-16T23:53:47.484Z,29.00
2023-04-16T23:56:15.397Z,29.58
2023-04-16T23:58:43.178Z,29.75
